sensor_id;sensor_type;location;lat;lon;timestamp;temperature;humidity
23873;DHT22;42884;50.718;4.630;2022-09-09T00:01:52;15.80;99.90
23873;DHT22;42884;50.718;4.630;2022-09-09T00:06:50;15.80;99.90
23873;DHT22;42884;50.718;4.630;2022-09-09T00:09:25;15.70;99.90
23873;DHT22;42884;50.718;4.630;2022-09-09T00:11:52;15.70;99.90
23873;DHT22;42884;50.718;4.630;2022-09-09T00:17:09;15.70;99.90
23873;DHT22;42884;50.718;4.630;2022-09-09T00:22:25;15.60;99.90
23873;DHT22;42884;50.718;4.630;2022-09-09T00:24:53;15.70;99.90
23873;DHT22;42884;50.718;4.630;2022-09-09T00:29:55;15.80;99.90
23873;DHT22;42884;50.718;4.630;2022-09-09T00:32:22;15.80;99.90
23873;DHT22;42884;50.718;4.630;2022-09-09T00:34:51;15.80;99.90
23873;DHT22;42884;50.718;4.630;2022-09-09T00:37:18;15.90;99.90
23873;DHT22;42884;50.718;4.630;2022-09-09T00:39:47;15.90;99.90
23873;DHT22;42884;50.718;4.630;2022-09-09T00:44:52;15.90;99.90
23873;DHT22;42884;50.718;4.630;2022-09-09T00:55:16;15.80;99.90
23873;DHT22;42884;50.718;4.630;2022-09-09T00:57:44;15.80;99.90
23873;DHT22;42884;50.718;4.630;2022-09-09T01:00:21;15.80;99.90
23873;DHT22;42884;50.718;4.630;2022-09-09T01:05:26;15.80;99.90
23873;DHT22;42884;50.718;4.630;2022-09-09T01:07:55;15.80;99.90
23873;DHT22;42884;50.718;4.630;2022-09-09T01:10:48;15.90;99.90
23873;DHT22;42884;50.718;4.630;2022-09-09T01:13:13;15.90;99.90
23873;DHT22;42884;50.718;4.630;2022-09-09T01:15:40;15.90;99.90
23873;DHT22;42884;50.718;4.630;2022-09-09T01:18:13;15.90;99.90
23873;DHT22;42884;50.718;4.630;2022-09-09T01:20:48;16.00;99.90
23873;DHT22;42884;50.718;4.630;2022-09-09T01:28:14;16.00;99.90
23873;DHT22;42884;50.718;4.630;2022-09-09T01:30:41;16.10;99.90
23873;DHT22;42884;50.718;4.630;2022-09-09T01:33:07;16.10;99.90
23873;DHT22;42884;50.718;4.630;2022-09-09T01:35:43;16.10;99.90
23873;DHT22;42884;50.718;4.630;2022-09-09T01:38:10;16.10;99.90
23873;DHT22;42884;50.718;4.630;2022-09-09T01:40:36;16.10;99.90
23873;DHT22;42884;50.718;4.630;2022-09-09T01:43:02;16.10;99.90
23873;DHT22;42884;50.718;4.630;2022-09-09T01:45:28;16.20;99.90
23873;DHT22;42884;50.718;4.630;2022-09-09T01:47:54;16.20;99.90
23873;DHT22;42884;50.718;4.630;2022-09-09T01:50:19;16.10;99.90
23873;DHT22;42884;50.718;4.630;2022-09-09T01:52:46;16.20;99.90
23873;DHT22;42884;50.718;4.630;2022-09-09T01:55:13;16.20;99.90
23873;DHT22;42884;50.718;4.630;2022-09-09T01:57:41;16.10;99.90
23873;DHT22;42884;50.718;4.630;2022-09-09T02:00:10;16.20;99.90
23873;DHT22;42884;50.718;4.630;2022-09-09T02:02:41;16.20;99.90
23873;DHT22;42884;50.718;4.630;2022-09-09T02:05:17;16.30;99.90
23873;DHT22;42884;50.718;4.630;2022-09-09T02:07:48;16.10;99.90
23873;DHT22;42884;50.718;4.630;2022-09-09T02:10:21;16.20;99.90
23873;DHT22;42884;50.718;4.630;2022-09-09T02:12:50;16.10;99.90
23873;DHT22;42884;50.718;4.630;2022-09-09T02:15:21;16.20;99.90
23873;DHT22;42884;50.718;4.630;2022-09-09T02:17:49;16.20;99.90
23873;DHT22;42884;50.718;4.630;2022-09-09T02:20:16;16.10;99.90
23873;DHT22;42884;50.718;4.630;2022-09-09T02:22:43;16.10;99.90
23873;DHT22;42884;50.718;4.630;2022-09-09T02:25:12;16.20;99.90
23873;DHT22;42884;50.718;4.630;2022-09-09T02:27:39;16.20;99.90
23873;DHT22;42884;50.718;4.630;2022-09-09T02:30:06;16.20;99.90
23873;DHT22;42884;50.718;4.630;2022-09-09T02:32:32;16.20;99.90
23873;DHT22;42884;50.718;4.630;2022-09-09T02:35:00;16.20;99.90
23873;DHT22;42884;50.718;4.630;2022-09-09T02:37:28;16.20;99.90
23873;DHT22;42884;50.718;4.630;2022-09-09T02:39:56;16.20;99.90
23873;DHT22;42884;50.718;4.630;2022-09-09T02:42:22;16.20;99.90
23873;DHT22;42884;50.718;4.630;2022-09-09T02:44:49;16.00;99.90
23873;DHT22;42884;50.718;4.630;2022-09-09T02:52:10;16.10;99.90
23873;DHT22;42884;50.718;4.630;2022-09-09T02:54:40;16.10;99.90
23873;DHT22;42884;50.718;4.630;2022-09-09T02:57:21;16.20;99.90
23873;DHT22;42884;50.718;4.630;2022-09-09T02:59:47;16.20;99.90
23873;DHT22;42884;50.718;4.630;2022-09-09T03:02:13;16.20;99.90
23873;DHT22;42884;50.718;4.630;2022-09-09T03:04:39;16.10;99.90
23873;DHT22;42884;50.718;4.630;2022-09-09T03:07:04;16.20;99.90
23873;DHT22;42884;50.718;4.630;2022-09-09T03:09:30;15.90;99.90
23873;DHT22;42884;50.718;4.630;2022-09-09T03:11:56;16.00;99.90
23873;DHT22;42884;50.718;4.630;2022-09-09T03:14:22;16.00;99.90
23873;DHT22;42884;50.718;4.630;2022-09-09T03:16:50;16.10;99.90
23873;DHT22;42884;50.718;4.630;2022-09-09T03:19:16;16.00;99.90
23873;DHT22;42884;50.718;4.630;2022-09-09T03:21:41;16.00;99.90
23873;DHT22;42884;50.718;4.630;2022-09-09T03:24:07;16.00;99.90
23873;DHT22;42884;50.718;4.630;2022-09-09T03:26:32;16.00;99.90
23873;DHT22;42884;50.718;4.630;2022-09-09T03:28:58;16.00;99.90
23873;DHT22;42884;50.718;4.630;2022-09-09T03:31:25;16.00;99.90
23873;DHT22;42884;50.718;4.630;2022-09-09T03:33:51;16.00;99.90
23873;DHT22;42884;50.718;4.630;2022-09-09T03:36:17;16.00;99.90
23873;DHT22;42884;50.718;4.630;2022-09-09T03:38:42;15.90;99.90
23873;DHT22;42884;50.718;4.630;2022-09-09T03:41:08;15.90;99.90
23873;DHT22;42884;50.718;4.630;2022-09-09T03:43:34;15.90;99.90
23873;DHT22;42884;50.718;4.630;2022-09-09T03:45:59;15.90;99.90
23873;DHT22;42884;50.718;4.630;2022-09-09T03:48:25;15.90;99.90
23873;DHT22;42884;50.718;4.630;2022-09-09T03:50:53;15.90;99.90
23873;DHT22;42884;50.718;4.630;2022-09-09T03:53:20;15.90;99.90
23873;DHT22;42884;50.718;4.630;2022-09-09T03:55:46;16.00;99.90
23873;DHT22;42884;50.718;4.630;2022-09-09T03:58:13;15.90;99.90
23873;DHT22;42884;50.718;4.630;2022-09-09T04:00:39;15.80;99.90
23873;DHT22;42884;50.718;4.630;2022-09-09T04:03:09;15.90;99.90
23873;DHT22;42884;50.718;4.630;2022-09-09T04:05:34;16.00;99.90
23873;DHT22;42884;50.718;4.630;2022-09-09T04:08:00;16.00;99.90
23873;DHT22;42884;50.718;4.630;2022-09-09T04:10:25;16.00;99.90
23873;DHT22;42884;50.718;4.630;2022-09-09T04:12:52;15.90;99.90
23873;DHT22;42884;50.718;4.630;2022-09-09T04:15:17;16.00;99.90
23873;DHT22;42884;50.718;4.630;2022-09-09T04:17:43;16.00;99.90
23873;DHT22;42884;50.718;4.630;2022-09-09T04:20:09;16.10;99.90
23873;DHT22;42884;50.718;4.630;2022-09-09T04:22:37;16.10;99.90
23873;DHT22;42884;50.718;4.630;2022-09-09T04:25:04;16.10;99.90
23873;DHT22;42884;50.718;4.630;2022-09-09T04:27:31;16.20;99.90
23873;DHT22;42884;50.718;4.630;2022-09-09T04:29:56;16.20;99.90
23873;DHT22;42884;50.718;4.630;2022-09-09T04:32:22;16.20;99.90
23873;DHT22;42884;50.718;4.630;2022-09-09T04:34:48;16.10;99.90
23873;DHT22;42884;50.718;4.630;2022-09-09T04:37:14;16.20;99.90
23873;DHT22;42884;50.718;4.630;2022-09-09T04:39:39;16.20;99.90
23873;DHT22;42884;50.718;4.630;2022-09-09T04:42:05;16.20;99.90
23873;DHT22;42884;50.718;4.630;2022-09-09T04:44:30;16.10;99.90
23873;DHT22;42884;50.718;4.630;2022-09-09T04:46:56;16.10;99.90
23873;DHT22;42884;50.718;4.630;2022-09-09T04:49:22;16.20;99.90
23873;DHT22;42884;50.718;4.630;2022-09-09T04:51:50;16.00;99.90
23873;DHT22;42884;50.718;4.630;2022-09-09T04:54:16;16.00;99.90
23873;DHT22;42884;50.718;4.630;2022-09-09T04:56:41;15.90;99.90
23873;DHT22;42884;50.718;4.630;2022-09-09T04:59:08;15.90;99.90
23873;DHT22;42884;50.718;4.630;2022-09-09T05:01:35;15.80;99.90
23873;DHT22;42884;50.718;4.630;2022-09-09T05:04:01;15.90;99.90
23873;DHT22;42884;50.718;4.630;2022-09-09T05:06:28;16.00;99.90
23873;DHT22;42884;50.718;4.630;2022-09-09T05:08:56;15.90;99.90
23873;DHT22;42884;50.718;4.630;2022-09-09T05:11:24;15.80;99.90
23873;DHT22;42884;50.718;4.630;2022-09-09T05:13:51;15.80;99.90
23873;DHT22;42884;50.718;4.630;2022-09-09T05:16:17;15.80;99.90
23873;DHT22;42884;50.718;4.630;2022-09-09T05:18:42;15.90;99.90
23873;DHT22;42884;50.718;4.630;2022-09-09T05:21:08;16.00;99.90
23873;DHT22;42884;50.718;4.630;2022-09-09T05:23:34;16.00;99.90
23873;DHT22;42884;50.718;4.630;2022-09-09T05:26:00;16.10;99.90
23873;DHT22;42884;50.718;4.630;2022-09-09T05:28:26;16.10;99.90
23873;DHT22;42884;50.718;4.630;2022-09-09T05:30:59;16.10;99.90
23873;DHT22;42884;50.718;4.630;2022-09-09T05:33:26;16.10;99.90
23873;DHT22;42884;50.718;4.630;2022-09-09T05:35:56;16.00;99.90
23873;DHT22;42884;50.718;4.630;2022-09-09T05:38:21;16.00;99.90
23873;DHT22;42884;50.718;4.630;2022-09-09T05:40:49;16.10;99.90
23873;DHT22;42884;50.718;4.630;2022-09-09T05:43:15;16.20;99.90
23873;DHT22;42884;50.718;4.630;2022-09-09T05:45:40;16.20;99.90
23873;DHT22;42884;50.718;4.630;2022-09-09T05:48:06;16.20;99.90
23873;DHT22;42884;50.718;4.630;2022-09-09T05:50:33;16.30;99.90
23873;DHT22;42884;50.718;4.630;2022-09-09T05:52:58;16.30;99.90
23873;DHT22;42884;50.718;4.630;2022-09-09T05:55:24;16.40;99.90
23873;DHT22;42884;50.718;4.630;2022-09-09T05:57:50;16.40;99.90
23873;DHT22;42884;50.718;4.630;2022-09-09T06:00:17;16.40;99.90
23873;DHT22;42884;50.718;4.630;2022-09-09T06:02:43;16.40;99.90
23873;DHT22;42884;50.718;4.630;2022-09-09T06:05:09;16.50;99.90
23873;DHT22;42884;50.718;4.630;2022-09-09T06:07:36;16.70;99.90
23873;DHT22;42884;50.718;4.630;2022-09-09T06:10:01;16.80;99.90
23873;DHT22;42884;50.718;4.630;2022-09-09T06:12:27;16.70;99.90
23873;DHT22;42884;50.718;4.630;2022-09-09T06:14:52;16.70;99.90
23873;DHT22;42884;50.718;4.630;2022-09-09T06:17:18;16.70;99.90
23873;DHT22;42884;50.718;4.630;2022-09-09T06:19:43;16.70;99.90
23873;DHT22;42884;50.718;4.630;2022-09-09T06:22:09;16.80;99.90
23873;DHT22;42884;50.718;4.630;2022-09-09T06:24:37;16.80;99.90
23873;DHT22;42884;50.718;4.630;2022-09-09T06:27:03;16.80;99.90
23873;DHT22;42884;50.718;4.630;2022-09-09T06:29:28;16.90;99.90
23873;DHT22;42884;50.718;4.630;2022-09-09T06:31:54;16.80;99.90
23873;DHT22;42884;50.718;4.630;2022-09-09T06:34:19;16.80;99.90
23873;DHT22;42884;50.718;4.630;2022-09-09T06:36:46;16.90;99.90
23873;DHT22;42884;50.718;4.630;2022-09-09T06:39:11;17.00;99.90
23873;DHT22;42884;50.718;4.630;2022-09-09T06:41:37;17.00;99.90
23873;DHT22;42884;50.718;4.630;2022-09-09T06:44:03;17.10;99.90
23873;DHT22;42884;50.718;4.630;2022-09-09T06:46:30;17.10;99.90
23873;DHT22;42884;50.718;4.630;2022-09-09T06:48:57;17.10;99.90
23873;DHT22;42884;50.718;4.630;2022-09-09T06:51:34;17.00;99.90
23873;DHT22;42884;50.718;4.630;2022-09-09T06:54:00;17.10;99.90
23873;DHT22;42884;50.718;4.630;2022-09-09T06:58:56;17.00;99.90
23873;DHT22;42884;50.718;4.630;2022-09-09T07:01:24;17.10;99.90
23873;DHT22;42884;50.718;4.630;2022-09-09T07:03:51;17.10;99.90
23873;DHT22;42884;50.718;4.630;2022-09-09T07:06:20;17.10;99.90
23873;DHT22;42884;50.718;4.630;2022-09-09T07:08:52;17.10;99.90
23873;DHT22;42884;50.718;4.630;2022-09-09T07:11:19;17.20;99.90
23873;DHT22;42884;50.718;4.630;2022-09-09T07:13:44;17.40;99.90
23873;DHT22;42884;50.718;4.630;2022-09-09T07:16:11;17.30;99.90
23873;DHT22;42884;50.718;4.630;2022-09-09T07:18:37;17.40;99.90
23873;DHT22;42884;50.718;4.630;2022-09-09T07:21:03;17.50;99.90
23873;DHT22;42884;50.718;4.630;2022-09-09T07:23:29;17.60;99.90
23873;DHT22;42884;50.718;4.630;2022-09-09T07:25:55;17.60;99.90
23873;DHT22;42884;50.718;4.630;2022-09-09T07:28:21;17.80;99.90
23873;DHT22;42884;50.718;4.630;2022-09-09T07:30:58;17.80;99.90
23873;DHT22;42884;50.718;4.630;2022-09-09T07:33:25;17.80;99.90
23873;DHT22;42884;50.718;4.630;2022-09-09T07:35:51;17.80;99.90
23873;DHT22;42884;50.718;4.630;2022-09-09T07:38:17;18.00;99.90
23873;DHT22;42884;50.718;4.630;2022-09-09T07:40:43;17.90;99.90
23873;DHT22;42884;50.718;4.630;2022-09-09T07:43:09;17.80;99.90
23873;DHT22;42884;50.718;4.630;2022-09-09T07:45:34;17.90;99.90
23873;DHT22;42884;50.718;4.630;2022-09-09T07:48:01;17.80;99.90
23873;DHT22;42884;50.718;4.630;2022-09-09T07:50:26;17.70;99.90
23873;DHT22;42884;50.718;4.630;2022-09-09T07:52:52;17.70;99.90
23873;DHT22;42884;50.718;4.630;2022-09-09T07:55:19;17.70;99.90
23873;DHT22;42884;50.718;4.630;2022-09-09T07:57:44;17.90;99.90
23873;DHT22;42884;50.718;4.630;2022-09-09T08:00:10;18.00;99.90
23873;DHT22;42884;50.718;4.630;2022-09-09T08:02:36;17.90;99.90
23873;DHT22;42884;50.718;4.630;2022-09-09T08:05:02;18.00;99.90
23873;DHT22;42884;50.718;4.630;2022-09-09T08:07:28;17.90;99.90
23873;DHT22;42884;50.718;4.630;2022-09-09T08:09:54;18.00;99.90
23873;DHT22;42884;50.718;4.630;2022-09-09T08:12:21;17.90;99.90
23873;DHT22;42884;50.718;4.630;2022-09-09T08:14:46;17.90;99.90
23873;DHT22;42884;50.718;4.630;2022-09-09T08:17:12;18.10;99.90
23873;DHT22;42884;50.718;4.630;2022-09-09T08:19:37;18.30;99.90
23873;DHT22;42884;50.718;4.630;2022-09-09T08:22:03;18.30;99.90
23873;DHT22;42884;50.718;4.630;2022-09-09T08:24:28;18.30;99.90
23873;DHT22;42884;50.718;4.630;2022-09-09T08:26:54;18.50;99.90
23873;DHT22;42884;50.718;4.630;2022-09-09T08:29:22;18.50;99.90
23873;DHT22;42884;50.718;4.630;2022-09-09T08:31:49;18.50;99.90
23873;DHT22;42884;50.718;4.630;2022-09-09T08:34:15;18.50;99.90
23873;DHT22;42884;50.718;4.630;2022-09-09T08:36:44;18.50;99.90
23873;DHT22;42884;50.718;4.630;2022-09-09T08:39:11;18.70;99.90
23873;DHT22;42884;50.718;4.630;2022-09-09T08:51:53;18.40;99.90
23873;DHT22;42884;50.718;4.630;2022-09-09T08:54:20;18.40;99.90
23873;DHT22;42884;50.718;4.630;2022-09-09T08:56:46;18.30;99.90
23873;DHT22;42884;50.718;4.630;2022-09-09T08:59:12;18.20;99.90
23873;DHT22;42884;50.718;4.630;2022-09-09T09:01:45;18.10;99.90
23873;DHT22;42884;50.718;4.630;2022-09-09T09:06:48;17.60;99.90
23873;DHT22;42884;50.718;4.630;2022-09-09T09:11:57;17.90;99.90
23873;DHT22;42884;50.718;4.630;2022-09-09T09:14:26;17.70;99.90
23873;DHT22;42884;50.718;4.630;2022-09-09T09:17:05;17.70;99.90
23873;DHT22;42884;50.718;4.630;2022-09-09T09:19:33;17.60;99.90
23873;DHT22;42884;50.718;4.630;2022-09-09T09:24:39;17.60;99.90
23873;DHT22;42884;50.718;4.630;2022-09-09T09:27:14;17.50;99.90
23873;DHT22;42884;50.718;4.630;2022-09-09T09:29:40;17.40;99.90
23873;DHT22;42884;50.718;4.630;2022-09-09T09:32:10;17.30;99.90
23873;DHT22;42884;50.718;4.630;2022-09-09T09:34:37;17.40;99.90
23873;DHT22;42884;50.718;4.630;2022-09-09T09:37:07;17.30;99.90
23873;DHT22;42884;50.718;4.630;2022-09-09T09:39:37;17.40;99.90
23873;DHT22;42884;50.718;4.630;2022-09-09T09:42:15;17.50;99.90
23873;DHT22;42884;50.718;4.630;2022-09-09T09:44:41;17.60;99.90
23873;DHT22;42884;50.718;4.630;2022-09-09T09:47:08;17.50;99.90
23873;DHT22;42884;50.718;4.630;2022-09-09T09:49:34;17.60;99.90
23873;DHT22;42884;50.718;4.630;2022-09-09T09:52:00;17.50;99.90
23873;DHT22;42884;50.718;4.630;2022-09-09T09:54:29;17.50;99.90
23873;DHT22;42884;50.718;4.630;2022-09-09T09:56:55;17.40;99.90
23873;DHT22;42884;50.718;4.630;2022-09-09T09:59:23;17.30;99.90
23873;DHT22;42884;50.718;4.630;2022-09-09T10:01:49;17.30;99.90
23873;DHT22;42884;50.718;4.630;2022-09-09T10:04:16;17.30;99.90
23873;DHT22;42884;50.718;4.630;2022-09-09T10:06:43;17.40;99.90
23873;DHT22;42884;50.718;4.630;2022-09-09T10:09:26;17.50;99.90
23873;DHT22;42884;50.718;4.630;2022-09-09T10:14:27;17.50;99.90
23873;DHT22;42884;50.718;4.630;2022-09-09T10:17:07;17.60;99.90
23873;DHT22;42884;50.718;4.630;2022-09-09T10:19:35;17.50;99.90
23873;DHT22;42884;50.718;4.630;2022-09-09T10:22:14;17.60;99.90
23873;DHT22;42884;50.718;4.630;2022-09-09T10:24:45;17.40;99.90
23873;DHT22;42884;50.718;4.630;2022-09-09T10:35:10;17.80;99.90
23873;DHT22;42884;50.718;4.630;2022-09-09T10:37:59;17.90;99.90
23873;DHT22;42884;50.718;4.630;2022-09-09T10:40:37;17.80;99.90
23873;DHT22;42884;50.718;4.630;2022-09-09T10:48:26;17.90;99.90
23873;DHT22;42884;50.718;4.630;2022-09-09T10:50:55;18.00;99.90
23873;DHT22;42884;50.718;4.630;2022-09-09T10:55:56;18.20;99.90
23873;DHT22;42884;50.718;4.630;2022-09-09T10:58:25;18.20;99.90
23873;DHT22;42884;50.718;4.630;2022-09-09T11:00:56;18.40;99.90
23873;DHT22;42884;50.718;4.630;2022-09-09T11:03:26;18.50;99.90
23873;DHT22;42884;50.718;4.630;2022-09-09T11:06:03;18.70;99.90
23873;DHT22;42884;50.718;4.630;2022-09-09T11:08:30;18.60;99.90
23873;DHT22;42884;50.718;4.630;2022-09-09T11:16:28;18.60;99.90
23873;DHT22;42884;50.718;4.630;2022-09-09T11:19:00;18.70;99.90
23873;DHT22;42884;50.718;4.630;2022-09-09T11:21:35;18.80;99.90
23873;DHT22;42884;50.718;4.630;2022-09-09T11:24:08;18.90;99.90
23873;DHT22;42884;50.718;4.630;2022-09-09T11:26:39;18.90;99.90
23873;DHT22;42884;50.718;4.630;2022-09-09T11:42:07;18.80;99.90
23873;DHT22;42884;50.718;4.630;2022-09-09T11:44:33;18.90;99.90
23873;DHT22;42884;50.718;4.630;2022-09-09T11:46:59;18.80;99.90
23873;DHT22;42884;50.718;4.630;2022-09-09T11:49:28;18.90;99.90
23873;DHT22;42884;50.718;4.630;2022-09-09T11:51:55;18.90;99.90
23873;DHT22;42884;50.718;4.630;2022-09-09T11:54:31;19.00;99.90
23873;DHT22;42884;50.718;4.630;2022-09-09T11:56:57;19.00;99.90
23873;DHT22;42884;50.718;4.630;2022-09-09T11:59:29;19.00;99.90
23873;DHT22;42884;50.718;4.630;2022-09-09T12:02:03;19.00;99.90
23873;DHT22;42884;50.718;4.630;2022-09-09T12:04:59;19.10;99.90
23873;DHT22;42884;50.718;4.630;2022-09-09T12:10:03;19.40;99.90
23873;DHT22;42884;50.718;4.630;2022-09-09T12:12:30;19.30;99.90
23873;DHT22;42884;50.718;4.630;2022-09-09T12:15:01;19.20;99.90
23873;DHT22;42884;50.718;4.630;2022-09-09T12:17:27;19.30;99.90
23873;DHT22;42884;50.718;4.630;2022-09-09T12:20:00;19.40;99.90
23873;DHT22;42884;50.718;4.630;2022-09-09T12:25:26;19.50;99.90
23873;DHT22;42884;50.718;4.630;2022-09-09T12:31:17;19.70;99.90
23873;DHT22;42884;50.718;4.630;2022-09-09T12:33:18;19.90;99.90
23873;DHT22;42884;50.718;4.630;2022-09-09T12:35:45;20.10;99.90
23873;DHT22;42884;50.718;4.630;2022-09-09T12:38:14;20.20;99.90
23873;DHT22;42884;50.718;4.630;2022-09-09T12:40:41;20.30;99.90
23873;DHT22;42884;50.718;4.630;2022-09-09T12:43:19;20.20;99.90
23873;DHT22;42884;50.718;4.630;2022-09-09T12:45:46;20.30;99.90
23873;DHT22;42884;50.718;4.630;2022-09-09T12:48:14;20.20;99.90
23873;DHT22;42884;50.718;4.630;2022-09-09T12:50:49;20.10;99.90
23873;DHT22;42884;50.718;4.630;2022-09-09T12:53:20;20.00;99.90
23873;DHT22;42884;50.718;4.630;2022-09-09T12:55:51;20.10;99.90
23873;DHT22;42884;50.718;4.630;2022-09-09T12:58:17;20.30;99.90
23873;DHT22;42884;50.718;4.630;2022-09-09T13:00:52;20.30;99.90
23873;DHT22;42884;50.718;4.630;2022-09-09T13:03:22;20.60;99.90
23873;DHT22;42884;50.718;4.630;2022-09-09T13:05:48;20.90;99.90
23873;DHT22;42884;50.718;4.630;2022-09-09T13:08:14;21.10;99.90
23873;DHT22;42884;50.718;4.630;2022-09-09T13:10:41;21.30;99.90
23873;DHT22;42884;50.718;4.630;2022-09-09T13:13:15;21.10;99.90
23873;DHT22;42884;50.718;4.630;2022-09-09T13:15:48;21.20;99.90
23873;DHT22;42884;50.718;4.630;2022-09-09T13:18:14;21.00;99.90
23873;DHT22;42884;50.718;4.630;2022-09-09T13:20:44;20.90;99.90
23873;DHT22;42884;50.718;4.630;2022-09-09T13:23:11;21.00;99.90
23873;DHT22;42884;50.718;4.630;2022-09-09T13:25:37;21.10;99.90
23873;DHT22;42884;50.718;4.630;2022-09-09T13:28:04;21.30;99.90
23873;DHT22;42884;50.718;4.630;2022-09-09T13:30:31;21.50;99.90
23873;DHT22;42884;50.718;4.630;2022-09-09T13:35:26;21.10;99.90
23873;DHT22;42884;50.718;4.630;2022-09-09T13:37:52;21.30;99.90
23873;DHT22;42884;50.718;4.630;2022-09-09T13:40:22;21.50;99.90
23873;DHT22;42884;50.718;4.630;2022-09-09T13:42:51;21.40;99.90
23873;DHT22;42884;50.718;4.630;2022-09-09T13:45:18;21.60;99.90
23873;DHT22;42884;50.718;4.630;2022-09-09T13:47:45;21.80;99.90
23873;DHT22;42884;50.718;4.630;2022-09-09T13:52:45;21.80;99.90
23873;DHT22;42884;50.718;4.630;2022-09-09T13:55:11;21.50;99.90
23873;DHT22;42884;50.718;4.630;2022-09-09T13:57:36;21.40;99.90
23873;DHT22;42884;50.718;4.630;2022-09-09T14:00:02;21.40;99.90
23873;DHT22;42884;50.718;4.630;2022-09-09T14:02:28;21.90;99.90
23873;DHT22;42884;50.718;4.630;2022-09-09T14:04:53;22.40;99.90
23873;DHT22;42884;50.718;4.630;2022-09-09T14:07:22;22.20;99.90
23873;DHT22;42884;50.718;4.630;2022-09-09T14:09:48;22.10;99.90
23873;DHT22;42884;50.718;4.630;2022-09-09T14:12:15;22.20;99.90
23873;DHT22;42884;50.718;4.630;2022-09-09T14:14:41;22.40;99.90
23873;DHT22;42884;50.718;4.630;2022-09-09T14:17:08;22.50;99.90
23873;DHT22;42884;50.718;4.630;2022-09-09T14:19:33;22.90;99.90
23873;DHT22;42884;50.718;4.630;2022-09-09T14:21:59;22.70;99.90
23873;DHT22;42884;50.718;4.630;2022-09-09T14:24:24;22.70;99.90
23873;DHT22;42884;50.718;4.630;2022-09-09T14:26:50;22.90;99.90
23873;DHT22;42884;50.718;4.630;2022-09-09T14:29:16;23.00;99.90
23873;DHT22;42884;50.718;4.630;2022-09-09T14:31:41;23.40;99.90
23873;DHT22;42884;50.718;4.630;2022-09-09T14:34:07;23.60;99.90
23873;DHT22;42884;50.718;4.630;2022-09-09T14:36:33;23.80;99.90
23873;DHT22;42884;50.718;4.630;2022-09-09T14:38:58;23.70;99.90
23873;DHT22;42884;50.718;4.630;2022-09-09T14:41:24;23.50;99.90
23873;DHT22;42884;50.718;4.630;2022-09-09T14:43:50;23.50;99.90
23873;DHT22;42884;50.718;4.630;2022-09-09T14:46:18;23.20;99.90
23873;DHT22;42884;50.718;4.630;2022-09-09T14:48:44;22.80;99.90
23873;DHT22;42884;50.718;4.630;2022-09-09T14:51:11;22.50;99.90
23873;DHT22;42884;50.718;4.630;2022-09-09T14:53:38;22.40;99.90
23873;DHT22;42884;50.718;4.630;2022-09-09T14:56:05;22.10;99.90
23873;DHT22;42884;50.718;4.630;2022-09-09T14:58:31;22.10;99.90
23873;DHT22;42884;50.718;4.630;2022-09-09T15:01:06;22.20;99.90
23873;DHT22;42884;50.718;4.630;2022-09-09T15:03:32;22.40;99.90
23873;DHT22;42884;50.718;4.630;2022-09-09T15:05:58;22.40;99.90
23873;DHT22;42884;50.718;4.630;2022-09-09T15:08:24;22.40;99.90
23873;DHT22;42884;50.718;4.630;2022-09-09T15:10:50;22.30;99.90
23873;DHT22;42884;50.718;4.630;2022-09-09T15:13:15;22.10;99.90
23873;DHT22;42884;50.718;4.630;2022-09-09T15:15:44;21.80;99.90
23873;DHT22;42884;50.718;4.630;2022-09-09T15:18:09;21.50;99.90
23873;DHT22;42884;50.718;4.630;2022-09-09T15:20:35;21.40;99.90
23873;DHT22;42884;50.718;4.630;2022-09-09T15:23:02;21.40;99.90
23873;DHT22;42884;50.718;4.630;2022-09-09T15:25:28;21.30;99.90
23873;DHT22;42884;50.718;4.630;2022-09-09T15:27:54;21.40;99.90
23873;DHT22;42884;50.718;4.630;2022-09-09T15:30:21;21.30;99.90
23873;DHT22;42884;50.718;4.630;2022-09-09T15:32:46;21.30;99.90
23873;DHT22;42884;50.718;4.630;2022-09-09T15:35:12;21.40;99.90
23873;DHT22;42884;50.718;4.630;2022-09-09T15:37:37;21.40;99.90
23873;DHT22;42884;50.718;4.630;2022-09-09T15:40:03;21.40;99.90
23873;DHT22;42884;50.718;4.630;2022-09-09T15:42:29;21.50;99.90
23873;DHT22;42884;50.718;4.630;2022-09-09T15:44:55;21.80;99.90
23873;DHT22;42884;50.718;4.630;2022-09-09T15:47:20;21.60;99.90
23873;DHT22;42884;50.718;4.630;2022-09-09T15:49:46;21.50;99.90
23873;DHT22;42884;50.718;4.630;2022-09-09T15:52:12;21.30;99.90
23873;DHT22;42884;50.718;4.630;2022-09-09T15:54:38;21.00;99.90
23873;DHT22;42884;50.718;4.630;2022-09-09T15:57:05;20.90;99.90
23873;DHT22;42884;50.718;4.630;2022-09-09T15:59:31;21.00;99.90
23873;DHT22;42884;50.718;4.630;2022-09-09T16:01:56;21.20;99.90
23873;DHT22;42884;50.718;4.630;2022-09-09T16:04:23;21.30;99.90
23873;DHT22;42884;50.718;4.630;2022-09-09T16:06:53;21.40;99.90
23873;DHT22;42884;50.718;4.630;2022-09-09T16:09:19;21.40;99.90
23873;DHT22;42884;50.718;4.630;2022-09-09T16:11:44;21.20;99.90
23873;DHT22;42884;50.718;4.630;2022-09-09T16:14:12;21.20;99.90
23873;DHT22;42884;50.718;4.630;2022-09-09T16:16:38;21.30;99.90
23873;DHT22;42884;50.718;4.630;2022-09-09T16:19:05;21.30;99.90
23873;DHT22;42884;50.718;4.630;2022-09-09T16:21:34;21.20;99.90
23873;DHT22;42884;50.718;4.630;2022-09-09T16:24:01;21.40;99.90
23873;DHT22;42884;50.718;4.630;2022-09-09T16:26:28;21.30;99.90
23873;DHT22;42884;50.718;4.630;2022-09-09T16:28:54;21.60;99.90
23873;DHT22;42884;50.718;4.630;2022-09-09T16:31:20;21.80;99.90
23873;DHT22;42884;50.718;4.630;2022-09-09T16:33:46;21.70;99.90
23873;DHT22;42884;50.718;4.630;2022-09-09T16:36:14;21.90;99.90
23873;DHT22;42884;50.718;4.630;2022-09-09T16:38:39;21.70;99.90
23873;DHT22;42884;50.718;4.630;2022-09-09T16:41:06;21.60;99.90
23873;DHT22;42884;50.718;4.630;2022-09-09T16:43:32;21.50;99.90
23873;DHT22;42884;50.718;4.630;2022-09-09T16:45:58;21.30;99.90
23873;DHT22;42884;50.718;4.630;2022-09-09T16:48:26;21.20;99.90
23873;DHT22;42884;50.718;4.630;2022-09-09T16:50:52;21.00;99.90
23873;DHT22;42884;50.718;4.630;2022-09-09T16:53:18;20.90;99.90
23873;DHT22;42884;50.718;4.630;2022-09-09T16:55:43;21.00;99.90
23873;DHT22;42884;50.718;4.630;2022-09-09T16:58:12;20.90;99.90
23873;DHT22;42884;50.718;4.630;2022-09-09T17:00:38;20.80;99.90
23873;DHT22;42884;50.718;4.630;2022-09-09T17:03:03;20.90;99.90
23873;DHT22;42884;50.718;4.630;2022-09-09T17:05:29;20.90;99.90
23873;DHT22;42884;50.718;4.630;2022-09-09T17:07:55;20.50;99.90
23873;DHT22;42884;50.718;4.630;2022-09-09T17:10:23;20.30;99.90
23873;DHT22;42884;50.718;4.630;2022-09-09T17:12:49;20.30;99.90
23873;DHT22;42884;50.718;4.630;2022-09-09T17:15:15;20.20;99.90
23873;DHT22;42884;50.718;4.630;2022-09-09T17:17:41;20.30;99.90